Time;durP1;ratioP1;P1;durP2;ratioP2;P2;SDS_P1;SDS_P2;PMS_P1;PMS_P2;Temp;Humidity;BMP_temperature;BMP_pressure;BME280_temperature;BME280_humidity;BME280_pressure;Samples;Min_cycle;Max_cycle;Signal;HPM_P1;HPM_P2
2021/04/17 00:02:11;;;;;;;2.75;1.35;;;7.30;99.90;;;;;;4902765;29;20222;-81
2021/04/17 00:04:39;;;;;;;2.03;1.52;;;7.40;99.90;;;;;;4903299;29;20201;-79
2021/04/17 00:07:14;;;;;;;2.47;1.58;;;7.40;99.90;;;;;;4903649;29;20174;-82
2021/04/17 00:09:40;;;;;;;7.60;1.42;;;7.30;99.90;;;;;;4903132;29;20691;-80
2021/04/17 00:12:15;;;;;;;1.90;1.40;;;7.20;99.90;;;;;;4891668;29;20181;-79
2021/04/17 00:14:42;;;;;;;2.70;1.38;;;7.30;99.90;;;;;;4873303;29;20206;-81
2021/04/17 00:17:12;;;;;;;1.73;1.50;;;7.40;99.90;;;;;;4904394;29;20166;-80
2021/04/17 00:19:37;;;;;;;1.80;1.20;;;7.50;99.90;;;;;;4903909;29;20226;-79
2021/04/17 00:22:04;;;;;;;1.93;1.20;;;7.50;99.90;;;;;;4887663;29;20185;-80
2021/04/17 00:24:29;;;;;;;1.90;1.30;;;7.50;99.90;;;;;;4888109;29;20198;-81
2021/04/17 00:26:57;;;;;;;2.30;1.80;;;7.50;99.90;;;;;;4904871;29;20189;-81
2021/04/17 00:29:23;;;;;;;1.70;1.30;;;7.60;99.90;;;;;;4873344;29;20194;-81
2021/04/17 00:31:49;;;;;;;4.37;1.30;;;7.40;99.90;;;;;;4887809;29;20190;-81
2021/04/17 00:34:14;;;;;;;3.37;2.00;;;7.50;99.90;;;;;;4905374;29;20505;-80
2021/04/17 00:36:40;;;;;;;7.70;1.50;;;7.60;99.90;;;;;;4904317;29;20261;-80
2021/04/17 00:39:06;;;;;;;1.53;1.27;;;7.70;99.90;;;;;;4887906;29;20258;-79
2021/04/17 00:41:33;;;;;;;4.45;1.70;;;7.70;99.90;;;;;;4887225;29;20178;-80
2021/04/17 00:43:58;;;;;;;2.80;1.63;;;7.60;99.90;;;;;;4904122;29;20198;-80
2021/04/17 00:46:27;;;;;;;1.80;1.10;;;7.50;99.90;;;;;;4887045;29;20543;-81
2021/04/17 00:48:53;;;;;;;6.75;1.42;;;7.60;99.90;;;;;;4904636;29;20165;-81
2021/04/17 00:51:19;;;;;;;2.13;1.27;;;7.70;99.90;;;;;;4887024;29;20253;-80
2021/04/17 00:53:45;;;;;;;2.73;1.23;;;7.60;99.90;;;;;;4887559;29;20418;-81
2021/04/17 00:56:13;;;;;;;3.40;1.57;;;7.70;99.90;;;;;;4872273;29;20438;-82
2021/04/17 00:58:40;;;;;;;2.03;1.17;;;7.70;99.90;;;;;;4903371;29;20174;-81
2021/04/17 01:01:08;;;;;;;1.88;1.17;;;7.70;99.90;;;;;;4886233;29;20658;-82
2021/04/17 01:03:55;;;;;;;3.75;1.85;;;7.70;99.90;;;;;;4885246;29;20214;-81
2021/04/17 01:06:24;;;;;;;1.90;1.20;;;7.70;99.90;;;;;;4903817;29;20174;-80
2021/04/17 01:09:04;;;;;;;1.83;1.10;;;7.70;99.90;;;;;;4886851;29;20190;-80
2021/04/17 01:11:55;;;;;;;1.73;1.30;;;7.50;99.90;;;;;;4902761;29;20610;-82
2021/04/17 01:14:22;;;;;;;2.20;1.20;;;7.70;99.90;;;;;;4903681;29;20257;-81
2021/04/17 01:16:48;;;;;;;1.55;1.00;;;7.60;99.90;;;;;;4904042;29;20178;-80
2021/04/17 01:19:28;;;;;;;1.77;1.40;;;7.50;99.90;;;;;;4905050;29;20202;-80
2021/04/17 01:21:58;;;;;;;2.28;1.23;;;7.30;99.90;;;;;;4886473;29;20616;-80
2021/04/17 01:24:27;;;;;;;4.30;1.60;;;7.30;99.90;;;;;;4886453;29;20217;-79
2021/04/17 01:26:52;;;;;;;3.05;1.45;;;7.50;99.90;;;;;;4884920;29;20650;-81
2021/04/17 01:29:19;;;;;;;3.40;0.90;;;7.50;99.90;;;;;;4886175;29;20194;-81
2021/04/17 01:31:45;;;;;;;1.45;0.90;;;7.40;99.90;;;;;;4885493;29;20615;-80
2021/04/17 01:34:10;;;;;;;1.93;1.37;;;7.20;99.90;;;;;;4869662;29;20277;-80
2021/04/17 01:36:37;;;;;;;2.03;1.33;;;7.10;99.90;;;;;;4854692;29;20550;-80
2021/04/17 01:39:09;;;;;;;3.33;1.70;;;7.20;99.90;;;;;;4885431;29;20193;-81
2021/04/17 01:41:45;;;;;;;1.70;1.17;;;7.00;99.90;;;;;;4869392;29;20182;-79
2021/04/17 01:44:19;;;;;;;5.43;1.00;;;7.20;99.90;;;;;;4886728;29;20197;-81
2021/04/17 01:46:48;;;;;;;1.88;1.50;;;7.20;99.90;;;;;;4884146;29;20178;-81
2021/04/17 01:49:16;;;;;;;19.27;1.80;;;7.30;99.90;;;;;;4901506;29;20193;-79
2021/04/17 01:51:43;;;;;;;1.52;1.40;;;7.20;99.90;;;;;;4884688;29;20199;-80
2021/04/17 01:54:33;;;;;;;3.05;1.40;;;7.20;99.90;;;;;;4901398;29;20205;-80
2021/04/17 01:57:03;;;;;;;3.60;1.58;;;7.50;99.90;;;;;;4884516;29;20190;-81
2021/04/17 01:59:35;;;;;;;1.00;0.90;;;7.30;99.90;;;;;;4902006;29;20618;-79
2021/04/17 02:02:02;;;;;;;4.20;1.70;;;7.40;99.90;;;;;;4900135;29;20186;-79
2021/04/17 02:04:27;;;;;;;3.08;1.70;;;7.40;99.90;;;;;;4900914;29;20622;-81
2021/04/17 02:06:53;;;;;;;2.70;1.33;;;7.40;99.90;;;;;;4900310;29;20197;-79
2021/04/17 02:09:21;;;;;;;2.83;1.37;;;7.50;99.90;;;;;;4884054;29;20198;-80
2021/04/17 02:11:50;;;;;;;3.15;1.27;;;7.30;99.90;;;;;;4897656;29;20174;-81
2021/04/17 02:14:15;;;;;;;1.90;1.38;;;7.30;99.90;;;;;;4887725;29;20354;-80
2021/04/17 02:16:48;;;;;;;2.90;1.53;;;7.40;99.90;;;;;;4885619;29;20233;-80
2021/04/17 02:19:25;;;;;;;2.00;1.35;;;7.40;99.90;;;;;;4885612;29;20205;-80
2021/04/17 02:21:54;;;;;;;1.92;1.52;;;7.30;99.90;;;;;;4902258;29;20669;-81
2021/04/17 02:24:20;;;;;;;2.05;1.10;;;7.40;99.90;;;;;;4885191;29;20206;-79
2021/04/17 02:26:46;;;;;;;1.50;1.10;;;7.50;99.90;;;;;;4885712;29;20185;-81
2021/04/17 02:29:11;;;;;;;3.37;1.00;;;7.50;99.90;;;;;;4870204;29;20210;-80
2021/04/17 02:31:37;;;;;;;4.03;2.33;;;7.50;99.90;;;;;;4884822;29;20846;-80
2021/04/17 02:34:03;;;;;;;1.83;1.30;;;7.60;99.90;;;;;;4885066;29;20273;-80
2021/04/17 02:36:31;;;;;;;2.27;1.30;;;7.50;99.90;;;;;;4885500;29;20189;-80
2021/04/17 02:38:57;;;;;;;2.92;1.20;;;7.60;99.90;;;;;;4885839;29;20211;-80
2021/04/17 02:41:22;;;;;;;4.63;1.30;;;7.50;99.90;;;;;;4901681;29;20178;-82
2021/04/17 02:43:48;;;;;;;3.50;1.80;;;7.60;99.90;;;;;;4885875;29;20214;-81
2021/04/17 02:46:15;;;;;;;2.47;1.63;;;7.60;99.90;;;;;;4885694;29;20257;-79
2021/04/17 02:48:40;;;;;;;1.92;1.50;;;7.70;99.90;;;;;;4884123;29;20178;-80
2021/04/17 02:51:06;;;;;;;6.50;2.13;;;7.70;99.90;;;;;;4884273;29;20201;-80
2021/04/17 02:53:32;;;;;;;3.70;1.87;;;7.70;99.90;;;;;;4901142;29;20174;-80
2021/04/17 02:55:58;;;;;;;1.70;1.60;;;7.40;99.90;;;;;;4884201;29;20826;-80
2021/04/17 02:58:24;;;;;;;3.50;1.60;;;7.50;99.90;;;;;;4885009;29;20186;-80
2021/04/17 03:00:50;;;;;;;3.63;1.73;;;7.50;99.90;;;;;;4884119;29;20213;-80
2021/04/17 03:03:16;;;;;;;4.10;1.35;;;7.60;99.90;;;;;;4901923;29;20837;-81
2021/04/17 03:05:44;;;;;;;4.57;1.48;;;7.60;99.90;;;;;;4902461;29;20649;-81
2021/04/17 03:08:10;;;;;;;1.30;1.20;;;7.60;99.90;;;;;;4902557;29;20182;-81
2021/04/17 03:10:36;;;;;;;4.03;1.45;;;7.50;99.90;;;;;;4902331;29;20204;-81
2021/04/17 03:13:04;;;;;;;3.03;2.30;;;7.50;99.90;;;;;;4885255;29;20205;-82
2021/04/17 03:15:33;;;;;;;2.40;1.20;;;7.60;99.90;;;;;;4885545;29;20531;-82
2021/04/17 03:17:58;;;;;;;5.10;2.10;;;7.60;99.90;;;;;;4903187;29;20174;-80
2021/04/17 03:20:24;;;;;;;2.13;1.37;;;7.60;99.90;;;;;;4902664;29;20225;-80
2021/04/17 03:22:51;;;;;;;3.58;1.40;;;7.60;99.90;;;;;;4886577;29;20178;-80
2021/04/17 03:25:16;;;;;;;6.20;1.90;;;7.60;99.90;;;;;;4907497;29;20174;-81
2021/04/17 03:27:43;;;;;;;3.10;1.67;;;7.70;99.90;;;;;;4900321;29;20170;-81
2021/04/17 03:30:14;;;;;;;2.65;1.67;;;7.60;99.90;;;;;;4916112;29;20190;-81
2021/04/17 03:32:43;;;;;;;3.58;1.50;;;7.40;99.90;;;;;;4894302;29;20174;-80
2021/04/17 03:35:11;;;;;;;3.80;1.52;;;7.30;99.90;;;;;;4897913;29;20170;-80
2021/04/17 03:37:38;;;;;;;2.53;1.67;;;7.20;99.90;;;;;;4888911;29;20184;-82
2021/04/17 03:40:06;;;;;;;2.78;1.77;;;7.20;99.90;;;;;;4889060;29;20269;-80
2021/04/17 03:42:32;;;;;;;3.10;1.58;;;7.20;99.90;;;;;;4906396;29;20194;-81
2021/04/17 03:44:57;;;;;;;1.87;1.23;;;7.30;99.90;;;;;;4891452;29;20225;-82
2021/04/17 03:47:23;;;;;;;1.90;1.30;;;7.20;99.90;;;;;;4923095;29;20185;-82
2021/04/17 03:49:49;;;;;;;2.73;1.70;;;7.20;99.90;;;;;;4907052;29;20196;-81
2021/04/17 03:52:14;;;;;;;1.93;1.30;;;7.20;99.90;;;;;;4923119;29;20418;-80
2021/04/17 03:54:41;;;;;;;4.77;1.37;;;7.10;99.90;;;;;;4896364;29;20552;-81
2021/04/17 03:57:10;;;;;;;3.47;1.80;;;7.10;99.90;;;;;;4906272;29;20241;-81
2021/04/17 03:59:38;;;;;;;1.85;1.50;;;7.00;99.90;;;;;;4888760;29;20210;-81
2021/04/17 04:02:10;;;;;;;5.65;1.67;;;7.00;99.90;;;;;;4888422;29;20242;-80
2021/04/17 04:04:36;;;;;;;2.78;1.33;;;7.00;99.90;;;;;;4903828;29;20225;-81
2021/04/17 04:07:01;;;;;;;2.50;1.50;;;7.10;99.90;;;;;;4904565;29;20173;-81
2021/04/17 04:09:31;;;;;;;2.10;1.17;;;7.10;99.90;;;;;;4904096;29;20210;-82
2021/04/17 04:11:57;;;;;;;5.60;2.03;;;7.20;99.90;;;;;;4871583;29;20174;-81
2021/04/17 04:14:23;;;;;;;3.10;2.00;;;7.20;99.90;;;;;;4886906;29;20178;-80
2021/04/17 04:16:51;;;;;;;4.10;1.80;;;7.10;99.90;;;;;;4872189;29;20554;-81
2021/04/17 04:19:17;;;;;;;4.32;1.88;;;7.00;99.90;;;;;;4889130;29;20361;-80
2021/04/17 04:21:43;;;;;;;2.73;1.40;;;7.20;99.90;;;;;;4905193;29;20213;-81
2021/04/17 04:24:11;;;;;;;2.07;1.70;;;7.10;99.90;;;;;;4905499;29;20232;-81
2021/04/17 04:26:40;;;;;;;2.10;1.48;;;7.10;99.90;;;;;;4906128;29;20397;-82
2021/04/17 04:29:09;;;;;;;2.83;1.52;;;7.00;99.90;;;;;;4905197;29;20535;-81
2021/04/17 04:31:35;;;;;;;3.35;1.38;;;7.00;99.90;;;;;;4887919;29;20226;-80
2021/04/17 04:34:00;;;;;;;1.90;1.52;;;7.00;99.90;;;;;;4887603;29;20178;-80
2021/04/17 04:36:26;;;;;;;3.40;1.57;;;6.90;99.90;;;;;;4887947;29;20253;-80
2021/04/17 04:38:52;;;;;;;1.63;1.30;;;6.90;99.90;;;;;;4904305;29;20187;-81
2021/04/17 04:41:17;;;;;;;1.97;1.20;;;6.90;99.90;;;;;;4873110;29;20202;-81
2021/04/17 04:43:43;;;;;;;1.93;1.33;;;6.80;99.90;;;;;;4871391;29;20209;-80
2021/04/17 04:46:16;;;;;;;3.83;1.63;;;6.90;99.90;;;;;;4885640;29;20174;-81
2021/04/17 04:48:42;;;;;;;1.60;1.40;;;6.70;99.90;;;;;;4885455;29;20629;-82
2021/04/17 04:51:10;;;;;;;2.30;1.07;;;6.70;99.90;;;;;;4885428;29;20198;-81
2021/04/17 04:53:39;;;;;;;2.63;1.20;;;6.70;99.90;;;;;;4901815;29;20213;-81
2021/04/17 04:56:05;;;;;;;1.33;1.23;;;6.60;99.90;;;;;;4901373;29;20229;-80
2021/04/17 04:58:31;;;;;;;1.52;1.27;;;6.60;99.90;;;;;;4884706;29;20197;-80
2021/04/17 05:00:57;;;;;;;1.60;1.10;;;6.60;99.90;;;;;;4884390;29;20209;-81
2021/04/17 05:03:22;;;;;;;2.90;1.63;;;6.70;99.90;;;;;;4901165;29;20209;-80
2021/04/17 05:05:48;;;;;;;3.77;1.63;;;6.60;99.90;;;;;;4883592;29;20425;-82
2021/04/17 05:08:13;;;;;;;2.17;1.13;;;6.50;99.90;;;;;;4885973;29;20193;-80
2021/04/17 05:10:41;;;;;;;3.10;1.67;;;6.60;99.90;;;;;;4888106;29;20652;-80
2021/04/17 05:13:06;;;;;;;1.80;1.10;;;6.60;99.90;;;;;;4902966;29;20178;-81
2021/04/17 05:15:32;;;;;;;2.50;1.00;;;6.60;99.90;;;;;;4888390;29;20210;-80
2021/04/17 05:18:00;;;;;;;1.27;0.97;;;6.60;99.90;;;;;;4903676;29;20187;-80
2021/04/17 05:20:28;;;;;;;3.67;1.65;;;6.60;99.90;;;;;;4903437;29;20206;-81
2021/04/17 05:22:54;;;;;;;2.13;1.35;;;6.60;99.90;;;;;;4869942;29;20666;-81
2021/04/17 05:25:19;;;;;;;3.43;1.50;;;6.50;99.90;;;;;;4902539;29;20195;-82
2021/04/17 05:27:45;;;;;;;1.60;1.00;;;6.50;99.90;;;;;;4885020;29;20179;-81
2021/04/17 05:30:13;;;;;;;1.80;1.47;;;6.40;99.90;;;;;;4886113;29;20201;-82
2021/04/17 05:32:59;;;;;;;2.50;1.30;;;6.30;99.90;;;;;;4877562;29;20178;-81
2021/04/17 05:35:24;;;;;;;1.85;1.30;;;6.30;99.90;;;;;;4889490;29;20199;-81
2021/04/17 05:37:50;;;;;;;1.93;1.13;;;6.30;99.90;;;;;;4870745;29;20182;-81
2021/04/17 05:40:16;;;;;;;3.57;1.50;;;6.40;99.90;;;;;;4885091;29;20201;-79
2021/04/17 05:42:41;;;;;;;1.87;1.33;;;6.30;99.90;;;;;;4901709;29;20170;-81
2021/04/17 05:45:08;;;;;;;1.70;1.30;;;6.30;99.90;;;;;;4884667;29;20219;-81
2021/04/17 05:47:33;;;;;;;1.65;1.23;;;6.30;99.90;;;;;;4882835;29;20237;-81
2021/04/17 05:49:59;;;;;;;2.00;1.87;;;6.30;99.90;;;;;;4867913;29;20233;-80
2021/04/17 05:52:24;;;;;;;1.67;1.40;;;6.30;99.90;;;;;;4884302;29;20277;-81
2021/04/17 05:54:57;;;;;;;2.33;1.30;;;6.40;99.90;;;;;;4885152;29;20538;-82
2021/04/17 05:57:23;;;;;;;3.83;1.23;;;6.40;99.90;;;;;;4884281;29;20283;-81
2021/04/17 05:59:56;;;;;;;3.10;1.43;;;6.30;99.90;;;;;;4886967;29;20260;-82
2021/04/17 06:02:23;;;;;;;3.88;1.33;;;6.40;99.90;;;;;;4887397;29;20602;-81
2021/04/17 06:04:51;;;;;;;3.38;1.48;;;6.30;99.90;;;;;;4902072;29;20214;-82
2021/04/17 06:07:17;;;;;;;1.50;1.23;;;6.30;99.90;;;;;;4874580;29;20726;-83
2021/04/17 06:09:42;;;;;;;2.13;1.40;;;6.30;99.90;;;;;;4902242;29;20230;-80
2021/04/17 06:12:08;;;;;;;2.13;1.57;;;6.20;99.90;;;;;;4893893;29;20646;-80
2021/04/17 06:14:34;;;;;;;2.28;1.30;;;6.20;99.90;;;;;;4893844;29;20209;-79
2021/04/17 06:17:03;;;;;;;1.40;1.30;;;6.20;99.90;;;;;;4888791;29;20212;-82
2021/04/17 06:19:31;;;;;;;2.13;1.50;;;6.30;99.90;;;;;;4886517;29;20725;-81
2021/04/17 06:21:57;;;;;;;1.60;1.30;;;6.30;99.90;;;;;;4870203;29;20188;-81
2021/04/17 06:24:23;;;;;;;1.90;1.50;;;6.20;99.90;;;;;;4884698;29;20585;-80
2021/04/17 06:26:49;;;;;;;5.78;1.48;;;6.20;99.90;;;;;;4900906;29;20178;-81
2021/04/17 06:29:16;;;;;;;2.30;1.40;;;6.20;99.90;;;;;;4887298;29;20198;-81
2021/04/17 06:31:44;;;;;;;2.78;1.00;;;6.10;99.90;;;;;;4903906;29;20418;-81
2021/04/17 06:34:09;;;;;;;1.60;1.17;;;6.20;99.90;;;;;;4886302;29;20193;-81
2021/04/17 06:36:35;;;;;;;2.07;1.40;;;6.40;99.90;;;;;;4904004;29;20561;-80
2021/04/17 06:39:01;;;;;;;3.70;1.70;;;6.30;99.90;;;;;;4887373;29;20253;-81
2021/04/17 06:41:30;;;;;;;1.83;1.50;;;6.20;99.90;;;;;;4886594;29;20189;-79
2021/04/17 06:43:56;;;;;;;3.05;1.50;;;6.20;99.90;;;;;;4871532;29;20443;-80
2021/04/17 06:46:24;;;;;;;4.37;2.10;;;6.20;99.90;;;;;;4887267;29;20245;-80
2021/04/17 06:48:50;;;;;;;2.13;1.80;;;6.20;99.90;;;;;;4889582;29;20422;-81
2021/04/17 06:51:18;;;;;;;3.38;1.40;;;6.20;99.90;;;;;;4870577;29;20536;-80
2021/04/17 06:53:44;;;;;;;2.17;1.40;;;6.20;99.90;;;;;;4901973;29;20185;-80
2021/04/17 06:56:11;;;;;;;1.95;1.55;;;6.20;99.90;;;;;;4890943;29;20209;-81
2021/04/17 06:58:41;;;;;;;3.15;1.75;;;6.20;99.90;;;;;;4907599;29;20177;-80
2021/04/17 07:01:09;;;;;;;3.70;1.70;;;6.10;99.90;;;;;;4905769;29;20204;-80
2021/04/17 07:03:35;;;;;;;7.00;2.08;;;6.10;99.90;;;;;;4906770;29;20257;-80
2021/04/17 07:06:04;;;;;;;3.40;1.40;;;6.20;99.90;;;;;;4923031;29;20173;-80
2021/04/17 07:08:29;;;;;;;3.38;2.05;;;6.20;99.90;;;;;;4893944;29;20188;-82
2021/04/17 07:10:58;;;;;;;3.00;2.00;;;6.20;99.90;;;;;;4893036;29;20197;-81
2021/04/17 07:13:52;;;;;;;10.82;1.40;;;6.30;99.90;;;;;;4901192;29;20284;-81
2021/04/17 07:16:18;;;;;;;3.65;1.65;;;6.40;99.90;;;;;;4883739;29;20182;-80
2021/04/17 07:18:44;;;;;;;3.80;1.33;;;6.50;99.90;;;;;;4910177;29;20186;-80
2021/04/17 07:21:19;;;;;;;7.23;2.20;;;6.50;99.90;;;;;;4893353;29;20190;-81
2021/04/17 07:23:49;;;;;;;3.38;2.10;;;6.50;99.90;;;;;;4894717;29;20265;-83
2021/04/17 07:26:30;;;;;;;6.82;1.50;;;6.70;99.90;;;;;;4893754;29;20182;-84
2021/04/17 07:29:13;;;;;;;1.85;1.52;;;6.50;99.90;;;;;;4893135;29;20257;-84
2021/04/17 07:32:02;;;;;;;4.28;1.45;;;6.40;99.90;;;;;;4909868;29;20249;-83
2021/04/17 07:34:29;;;;;;;5.45;1.70;;;6.40;99.90;;;;;;4908004;29;20178;-82
2021/04/17 07:37:09;;;;;;;5.70;1.85;;;6.40;99.90;;;;;;4892471;29;20210;-82
2021/04/17 07:39:37;;;;;;;3.28;1.90;;;6.50;99.90;;;;;;4875401;29;20206;-82
2021/04/17 07:42:16;;;;;;;3.08;1.88;;;6.80;99.90;;;;;;4904568;29;20182;-81
2021/04/17 07:44:48;;;;;;;4.05;1.70;;;6.80;99.90;;;;;;4887273;29;20202;-81
2021/04/17 07:47:33;;;;;;;3.28;2.05;;;6.50;99.90;;;;;;4872398;29;20186;-82
2021/04/17 07:50:08;;;;;;;3.00;2.17;;;6.50;99.90;;;;;;4887910;29;20223;-82
2021/04/17 07:52:35;;;;;;;4.10;2.10;;;6.60;99.90;;;;;;4888070;29;20201;-82
2021/04/17 07:55:39;;;;;;;1.95;1.73;;;6.60;99.90;;;;;;4905929;29;20182;-81
2021/04/17 07:58:25;;;;;;;1.80;1.30;;;6.70;99.90;;;;;;4865872;29;20706;-80
2021/04/17 08:00:56;;;;;;;5.03;1.85;;;6.60;99.90;;;;;;4864934;29;20628;-82
2021/04/17 08:03:29;;;;;;;3.88;2.10;;;6.70;99.90;;;;;;4874595;29;20285;-82
2021/04/17 08:05:55;;;;;;;8.73;1.95;;;6.80;99.90;;;;;;4889001;29;20202;-84
2021/04/17 08:08:29;;;;;;;5.57;1.77;;;6.90;99.90;;;;;;4903014;29;20546;-80
2021/04/17 08:11:28;;;;;;;2.40;1.88;;;6.90;99.90;;;;;;4902120;29;20198;-81
2021/04/17 08:14:02;;;;;;;2.85;2.00;;;7.10;99.90;;;;;;4861961;29;20218;-83
2021/04/17 08:16:28;;;;;;;9.52;2.50;;;7.10;99.90;;;;;;4898024;29;20238;-82
2021/04/17 08:19:03;;;;;;;;;;;;;;;;;;;;;
2021/04/17 08:21:25;;;;;;;8.50;2.45;;;7.50;99.90;;;;;;4945723;23;20232;-80
2021/04/17 08:23:56;;;;;;;7.18;2.30;;;7.50;99.90;;;;;;4916890;29;20200;-82
2021/04/17 08:26:33;;;;;;;2.08;1.85;;;7.50;99.90;;;;;;4952521;29;20584;-81
2021/04/17 08:29:04;;;;;;;3.75;1.80;;;7.70;99.90;;;;;;4931387;29;20174;-81
2021/04/17 08:31:44;;;;;;;3.08;2.10;;;7.60;99.90;;;;;;4935222;29;20170;-81
2021/04/17 08:34:15;;;;;;;1.55;1.45;;;7.50;99.90;;;;;;4920739;29;20184;-82
2021/04/17 08:37:03;;;;;;;5.55;2.45;;;7.60;99.90;;;;;;4936171;29;20434;-83
2021/04/17 08:40:18;;;;;;;4.15;2.15;;;7.60;99.90;;;;;;4940249;29;20204;-81
2021/04/17 08:47:14;;;;;;;6.75;3.40;;;8.10;99.90;;;;;;4857406;29;20227;-81
2021/04/17 08:50:33;;;;;;;;;;;;;;;;;;;;;
2021/04/17 08:53:47;;;;;;;10.07;2.63;;;8.20;99.90;;;;;;4871455;29;20263;-82
2021/04/17 08:56:47;;;;;;;2.65;1.70;;;8.20;99.90;;;;;;4884670;29;20186;-83
2021/04/17 08:59:52;;;;;;;5.25;2.65;;;8.20;99.90;;;;;;4911632;29;20285;-81
2021/04/17 09:02:22;;;;;;;3.63;2.13;;;8.20;99.90;;;;;;4898988;29;20181;-80
2021/04/17 09:08:48;;;;;;;;;;;;;;;;;;;;;
2021/04/17 09:11:48;;;;;;;3.17;2.05;;;8.30;99.90;;;;;;4914405;29;20283;-80
2021/04/17 09:14:44;;;;;;;4.07;2.13;;;8.40;99.90;;;;;;4828071;29;20200;-81
2021/04/17 09:17:31;;;;;;;7.97;3.60;;;8.40;99.90;;;;;;4831631;29;20703;-79
2021/04/17 09:19:58;;;;;;;3.15;2.10;;;8.70;99.90;;;;;;4905238;29;20221;-79
2021/04/17 09:22:27;;;;;;;4.90;2.67;;;8.60;99.90;;;;;;4922119;29;20221;-81
2021/04/17 09:25:14;;;;;;;10.13;2.40;;;8.70;99.90;;;;;;4910704;29;20246;-81
2021/04/17 09:27:45;;;;;;;2.75;2.08;;;8.80;99.90;;;;;;4911738;29;20172;-82
2021/04/17 09:30:18;;;;;;;3.30;2.40;;;8.90;99.90;;;;;;4922494;29;20197;-81
2021/04/17 09:32:56;;;;;;;4.75;2.72;;;8.90;99.90;;;;;;4891201;29;20598;-81
2021/04/17 09:35:31;;;;;;;7.47;2.80;;;8.90;99.90;;;;;;4889002;29;20190;-86
2021/04/17 09:37:58;;;;;;;3.60;2.20;;;9.00;99.90;;;;;;4889019;29;20226;-83
2021/04/17 09:40:37;;;;;;;9.60;3.08;;;9.30;99.90;;;;;;4918314;29;20204;-83
2021/04/17 09:43:08;;;;;;;5.28;2.42;;;9.50;99.90;;;;;;4914420;29;20526;-83
2021/04/17 09:45:39;;;;;;;5.95;3.15;;;9.30;99.90;;;;;;4901444;29;20181;-84
2021/04/17 09:48:08;;;;;;;6.25;3.47;;;9.00;99.90;;;;;;4911012;29;20177;-81
2021/04/17 09:50:38;;;;;;;10.82;3.30;;;9.00;99.90;;;;;;4903525;29;20194;-85
2021/04/17 09:53:11;;;;;;;14.07;2.90;;;9.10;99.90;;;;;;4879044;29;20208;-82
2021/04/17 09:55:53;;;;;;;4.75;2.65;;;9.20;99.90;;;;;;4885439;29;20193;-83
2021/04/17 09:58:34;;;;;;;14.48;4.40;;;9.20;99.90;;;;;;4906555;29;20173;-81
2021/04/17 10:01:10;;;;;;;9.20;4.05;;;9.40;99.90;;;;;;4892822;29;20216;-85
2021/04/17 10:03:40;;;;;;;16.42;3.08;;;9.50;99.90;;;;;;4899917;29;20197;-84
2021/04/17 10:06:23;;;;;;;4.18;2.85;;;10.00;99.90;;;;;;4886104;29;20185;-82
2021/04/17 10:08:53;;;;;;;9.07;2.72;;;9.40;99.90;;;;;;4887688;29;20212;-83
2021/04/17 10:11:25;;;;;;;10.38;2.55;;;9.50;99.90;;;;;;4902455;29;20193;-83
2021/04/17 10:13:54;;;;;;;6.20;3.72;;;9.30;99.90;;;;;;4906685;29;20271;-82
2021/04/17 10:16:47;;;;;;;6.70;3.65;;;9.50;99.90;;;;;;4887985;29;20245;-84
2021/04/17 10:19:18;;;;;;;9.95;4.25;;;9.60;99.90;;;;;;4899149;29;20777;-83
2021/04/17 10:21:55;;;;;;;6.20;4.03;;;9.80;99.90;;;;;;4894797;29;20193;-82
2021/04/17 10:24:25;;;;;;;4.97;3.17;;;10.10;99.90;;;;;;4889051;29;20209;-83
2021/04/17 10:27:13;;;;;;;6.00;2.88;;;10.00;99.90;;;;;;4885604;29;20712;-82
2021/04/17 10:29:49;;;;;;;4.07;2.92;;;10.00;99.90;;;;;;4857064;29;20574;-81
2021/04/17 10:32:16;;;;;;;7.20;3.35;;;10.40;99.90;;;;;;4905897;29;20179;-82
2021/04/17 10:35:17;;;;;;;;;;;;;;;;;;;;;
2021/04/17 10:37:46;;;;;;;5.53;3.15;;;10.00;99.90;;;;;;4922935;29;20263;-82
2021/04/17 10:40:22;;;;;;;11.77;3.97;;;10.00;99.90;;;;;;4887400;29;20205;-83
2021/04/17 10:42:54;;;;;;;11.02;3.25;;;10.40;99.90;;;;;;4909411;29;20170;-80
2021/04/17 10:45:29;;;;;;;16.00;5.03;;;10.60;99.90;;;;;;4920670;29;20592;-82
2021/04/17 10:48:05;;;;;;;4.38;2.80;;;10.60;99.90;;;;;;4897103;29;20185;-82
2021/04/17 10:50:39;;;;;;;10.60;3.67;;;10.60;99.90;;;;;;4898376;29;20217;-81
2021/04/17 10:53:15;;;;;;;16.80;4.80;;;10.60;99.90;;;;;;4888398;29;20192;-81
2021/04/17 10:56:01;;;;;;;12.98;3.92;;;10.70;99.90;;;;;;4905221;29;20177;-81
2021/04/17 10:58:42;;;;;;;16.13;4.47;;;11.00;99.90;;;;;;4911477;29;20177;-82
2021/04/17 11:04:05;;;;;;;10.98;4.15;;;11.00;99.90;;;;;;4920422;29;20205;-81
2021/04/17 11:06:35;;;;;;;4.65;3.00;;;11.30;99.90;;;;;;4903646;29;20182;-81
2021/04/17 11:09:06;;;;;;;6.97;3.60;;;11.60;99.90;;;;;;4906086;29;20177;-82
2021/04/17 11:11:33;;;;;;;6.45;3.30;;;11.90;99.90;;;;;;4901080;29;20170;-82
2021/04/17 11:14:01;;;;;;;6.35;3.53;;;11.90;99.90;;;;;;4884794;29;20200;-82
2021/04/17 11:17:03;;;;;;;5.40;3.53;;;12.30;99.90;;;;;;4913060;29;20549;-81
2021/04/17 11:19:37;;;;;;;5.70;3.50;;;11.90;99.90;;;;;;4910566;29;20208;-82
2021/04/17 11:22:13;;;;;;;3.97;3.20;;;11.90;99.90;;;;;;4886257;29;20178;-81
2021/04/17 11:25:04;;;;;;;9.05;3.83;;;11.80;99.90;;;;;;4891397;29;20212;-80
2021/04/17 11:27:30;;;;;;;9.65;5.15;;;11.80;99.90;;;;;;4908753;29;20170;-81
2021/04/17 11:29:57;;;;;;;6.07;3.83;;;11.60;99.90;;;;;;4918447;29;20189;-80
2021/04/17 11:32:23;;;;;;;8.25;4.10;;;11.60;99.90;;;;;;4902352;29;20240;-80
2021/04/17 11:34:55;;;;;;;11.23;4.30;;;11.70;99.90;;;;;;4902533;29;20182;-79
2021/04/17 11:37:29;;;;;;;11.57;5.10;;;12.00;99.90;;;;;;4901247;29;20181;-81
2021/04/17 11:39:57;;;;;;;9.88;4.43;;;11.60;99.90;;;;;;4908347;29;20194;-82
2021/04/17 11:42:23;;;;;;;6.53;3.75;;;11.40;99.90;;;;;;4900458;29;20184;-81
2021/04/17 11:44:53;;;;;;;14.13;5.78;;;11.30;99.90;;;;;;4892080;29;20281;-81
2021/04/17 11:47:26;;;;;;;6.13;4.78;;;11.40;99.90;;;;;;4904316;29;20589;-83
2021/04/17 11:49:56;;;;;;;8.30;5.05;;;11.40;99.90;;;;;;4883334;29;20312;-84
2021/04/17 11:53:00;;;;;;;8.50;3.78;;;11.40;99.90;;;;;;4901917;29;20174;-83
2021/04/17 11:56:03;;;;;;;5.57;4.15;;;11.50;99.90;;;;;;4869852;29;20190;-84
2021/04/17 11:58:32;;;;;;;10.15;4.35;;;11.80;99.90;;;;;;4897335;29;20183;-83
2021/04/17 12:01:13;;;;;;;5.05;3.75;;;11.80;99.90;;;;;;4899928;29;20222;-84
2021/04/17 12:03:39;;;;;;;7.57;4.47;;;11.70;99.90;;;;;;4890335;29;21029;-83
2021/04/17 12:06:08;;;;;;;8.87;4.67;;;11.80;99.90;;;;;;4906724;29;20181;-84
2021/04/17 12:08:37;;;;;;;6.13;4.35;;;12.10;99.90;;;;;;4892742;29;21051;-85
2021/04/17 12:11:03;;;;;;;6.63;4.07;;;12.00;99.90;;;;;;4909915;29;20209;-85
2021/04/17 12:13:35;;;;;;;13.30;4.83;;;12.00;99.90;;;;;;4886931;29;20182;-84
2021/04/17 12:16:05;;;;;;;6.93;4.13;;;12.20;99.90;;;;;;4907858;29;20794;-83
2021/04/17 12:18:34;;;;;;;5.65;3.95;;;12.10;99.90;;;;;;4916447;29;20236;-81
2021/04/17 12:21:00;;;;;;;8.15;4.40;;;12.40;99.90;;;;;;4904580;29;20249;-83
2021/04/17 12:23:25;;;;;;;8.67;5.13;;;12.60;99.90;;;;;;4912622;29;20212;-83
2021/04/17 12:25:58;;;;;;;8.60;5.00;;;12.60;99.90;;;;;;4891872;29;20190;-83
2021/04/17 12:28:28;;;;;;;6.97;5.00;;;12.40;99.90;;;;;;4904909;29;20414;-82
2021/04/17 12:30:56;;;;;;;9.50;4.72;;;12.20;99.90;;;;;;4904432;29;20194;-82
2021/04/17 12:33:22;;;;;;;10.07;4.60;;;12.20;99.90;;;;;;4887305;29;20214;-83
2021/04/17 12:35:52;;;;;;;8.23;4.45;;;12.20;99.90;;;;;;4904094;29;20167;-83
2021/04/17 12:38:17;;;;;;;5.30;4.05;;;12.30;99.90;;;;;;4904335;29;20202;-82
2021/04/17 12:40:49;;;;;;;7.83;3.40;;;12.50;99.90;;;;;;4903637;29;20209;-83
2021/04/17 12:44:04;;;;;;;10.57;4.65;;;12.50;99.90;;;;;;4904194;29;20183;-81
2021/04/17 12:46:30;;;;;;;17.60;5.88;;;12.60;99.90;;;;;;4843721;29;20188;-84
2021/04/17 12:48:55;;;;;;;8.50;4.80;;;12.50;99.90;;;;;;4844520;29;20188;-83
2021/04/17 12:51:21;;;;;;;6.97;4.30;;;12.40;99.90;;;;;;4868527;29;20205;-83
2021/04/17 12:53:47;;;;;;;8.53;4.97;;;12.30;99.90;;;;;;4886632;29;20210;-82
2021/04/17 12:56:15;;;;;;;9.60;5.20;;;12.10;99.90;;;;;;4902867;29;20630;-81
2021/04/17 12:58:54;;;;;;;23.83;14.82;;;12.10;99.90;;;;;;4887206;29;20867;-82
2021/04/17 13:01:26;;;;;;;14.57;6.78;;;12.30;99.90;;;;;;4888508;29;20253;-83
2021/04/17 13:03:55;;;;;;;22.00;7.10;;;12.50;99.90;;;;;;4890253;29;20261;-81
2021/04/17 13:06:24;;;;;;;11.77;7.28;;;12.70;99.90;;;;;;4905338;29;20708;-82
2021/04/17 13:09:10;;;;;;;10.82;5.93;;;12.50;99.90;;;;;;4888372;29;20186;-81
2021/04/17 13:12:10;;;;;;;17.98;7.97;;;12.50;99.90;;;;;;4873983;29;20190;-81
2021/04/17 13:14:33;;;;;;;13.23;7.30;;;12.50;99.90;;;;;;4901152;29;20202;-83
2021/04/17 13:17:23;;;;;;;6.70;5.28;;;12.60;99.90;;;;;;4904559;29;20230;-83
2021/04/17 13:19:54;;;;;;;10.02;5.38;;;12.60;99.90;;;;;;4876055;29;20233;-82
2021/04/17 13:22:24;;;;;;;12.30;6.03;;;12.50;99.90;;;;;;4890270;29;20216;-83
2021/04/17 13:24:56;;;;;;;7.03;5.00;;;12.50;99.90;;;;;;4904212;29;20186;-84
2021/04/17 13:27:31;;;;;;;13.93;6.93;;;12.50;99.90;;;;;;4921017;29;20199;-84
2021/04/17 13:30:11;;;;;;;10.18;5.82;;;12.60;99.90;;;;;;4904970;29;20196;-85
2021/04/17 13:32:37;;;;;;;8.48;4.50;;;12.60;99.90;;;;;;4920144;29;20224;-82